Vanduser, MO

4:45 AM CDT on October 26, 2014 (GMT -0500)
Poplar Bluff Municipal | Change Station
CLOSE
Current Station
Airport
Location: Poplar Bluff,
Elevation: 328 ft
Nearby Weather Stations
Active Advisory: Special Statement

Elev 328 ft 36.77 °N, 90.32 °W | Updated 52 minutes ago

Fog
Fog
55 °F
Feels Like 55 °F
N
0
Wind Variable Wind from North

Today
High -- | Low -- °F
--% Chance of Precip.
Yesterday
High -- | Low -- °F
Precip. -- in
7:16 AM 6:07 PM
Waxing Crescent, 7% visible
Pressure 29.97 in
Visibility 0.2 miles
Clouds
Dew Point 53 °F
Humidity 93%
Rainfall 0.00 in
Snow Depth Not available.
UV Not available.
Pollen 2.40 out of 12
Air Quality Not available.
Flu Activity No Activity
METAR KPOF 260853Z AUTO 00000KT 1/4SM FG VV002 13/12 A2998 RMK AO2 SLP148 T01280117 58002

More Conditions Fewer Conditions

Pressure 29.97 in
Visibility 0.2 miles
Clouds
Dew Point 53 °F
Humidity 93%
Rainfall 0.00 in
Snow Depth Not available.
UV Not available.
Pollen 2.40 out of 12
Air Quality Not available.
Flu Activity No Activity
METAR KPOF 260853Z AUTO 00000KT 1/4SM FG VV002 13/12 A2998 RMK AO2 SLP148 T01280117 58002

More Conditions Fewer Conditions

10-Day Weather Forecast

Almanac

Astronomy

Oct. 26, 2014 Rise Set
Actual Time 7:16 AM CDT 6:07 PM CDT
Civil Twilight 6:50 AM CDT 6:34 PM CDT
Nautical Twilight 6:19 AM CDT 7:04 PM CDT
Astronomical Twilight 5:49 AM CDT 7:35 PM CDT
Moon 9:52 AM CDT 8:22 PM CDT
Length of Visible Light 11h 44m
Length of Day
10h 51m
Tomorrow will be 2m 9s shorter.
Waxing Crescent, 7% of the Moon is Illuminated
Today
Waxing Crescent
Oct 30
First Quarter
Nov 6
Full
Nov 14
Last Quarter
Nov 22
New

Today's Extremes

State Highs State Lows

Community

WunderPhotos

Upload Photos

1,765,132 photos uploaded!

Nearby

Snow Depth

Station Depth Elevation
No new snow has been reported.

Earthquake Activity

City Distance Mag. Time & Date
No recent earthquake activity has been reported nearby.
Minimum magnitude displayed is 2.5.

Coastal Water Temperatures

Place Temperature
No Stations Reporting

Nearby Weather Stations